Time;durP1;ratioP1;P1;durP2;ratioP2;P2;SDS_P1;SDS_P2;PMS_P1;PMS_P2;Temp;Humidity;BMP_temperature;BMP_pressure;BME280_temperature;BME280_humidity;BME280_pressure;Samples;Min_cycle;Max_cycle;Signal;HPM_P1;HPM_P2
2022/08/11 00:00:13;;;;;;;2.57;1.80;;;20.20;58.30;;;;;;4991991;28;20511;-78
2022/08/11 00:02:40;;;;;;;2.83;2.30;;;20.30;58.30;;;;;;4992177;28;20420;-78
2022/08/11 00:05:14;;;;;;;2.10;1.90;;;20.30;58.60;;;;;;5010570;28;20424;-79
2022/08/11 00:07:45;;;;;;;3.13;2.00;;;20.40;58.30;;;;;;5010393;28;20808;-79
2022/08/11 00:10:13;;;;;;;4.57;2.20;;;20.40;58.40;;;;;;4992731;28;20493;-79
2022/08/11 00:12:41;;;;;;;4.00;1.70;;;20.40;58.50;;;;;;4992332;28;20430;-78
2022/08/11 00:15:08;;;;;;;2.33;1.87;;;20.50;58.60;;;;;;4992981;28;20854;-79
2022/08/11 00:17:34;;;;;;;5.37;2.60;;;20.50;58.60;;;;;;4992904;28;20428;-79
2022/08/11 00:20:04;;;;;;;2.47;2.07;;;20.50;58.60;;;;;;5010890;28;20562;-79
2022/08/11 00:22:31;;;;;;;1.50;1.40;;;20.40;58.90;;;;;;4993127;28;20416;-78
2022/08/11 00:24:57;;;;;;;4.00;1.80;;;20.30;59.10;;;;;;4992514;28;20427;-79
2022/08/11 00:27:36;;;;;;;5.53;2.43;;;20.30;59.60;;;;;;5010438;28;20824;-79
2022/08/11 00:30:07;;;;;;;6.90;1.83;;;20.20;59.40;;;;;;4992956;28;20451;-79
2022/08/11 00:32:35;;;;;;;3.93;2.13;;;20.30;59.70;;;;;;4993649;28;20432;-80
2022/08/11 00:35:03;;;;;;;3.00;1.93;;;20.30;59.70;;;;;;4993984;28;20439;-79
2022/08/11 00:37:30;;;;;;;4.60;1.80;;;20.30;59.80;;;;;;4979309;28;20489;-80
2022/08/11 00:39:57;;;;;;;2.47;2.27;;;20.20;60.40;;;;;;5014723;28;20475;-80
2022/08/11 00:42:33;;;;;;;3.40;1.60;;;20.20;60.50;;;;;;5013913;28;20672;-79
2022/08/11 00:45:17;;;;;;;3.63;2.10;;;20.20;60.70;;;;;;5011669;28;20446;-81
2022/08/11 00:48:20;;;;;;;1.73;1.63;;;20.20;60.40;;;;;;4994760;28;20447;-78
2022/08/11 00:51:09;;;;;;;8.90;2.37;;;20.30;60.70;;;;;;5016687;28;20446;-80
2022/08/11 00:53:58;;;;;;;4.80;2.00;;;20.30;60.20;;;;;;5023056;28;20509;-78
2022/08/11 00:56:54;;;;;;;2.10;2.00;;;20.30;60.30;;;;;;5010573;28;20424;-79
2022/08/11 00:59:32;;;;;;;3.20;2.07;;;20.40;60.70;;;;;;5009739;28;20482;-78
2022/08/11 01:02:24;;;;;;;3.50;2.00;;;20.40;60.50;;;;;;5010934;28;20423;-79
2022/08/11 01:05:09;;;;;;;3.83;2.23;;;20.40;60.50;;;;;;5014626;28;20428;-79
2022/08/11 01:07:57;;;;;;;6.03;2.20;;;20.40;60.80;;;;;;4995222;28;20415;-79
2022/08/11 01:10:35;;;;;;;2.23;1.87;;;20.40;60.50;;;;;;4992656;28;20447;-78
2022/08/11 01:13:48;;;;;;;6.90;2.20;;;20.40;61.00;;;;;;4992587;28;20427;-79
2022/08/11 01:16:33;;;;;;;4.47;2.00;;;20.30;61.50;;;;;;4982406;28;20432;-79
2022/08/11 01:19:44;;;;;;;5.40;2.30;;;20.30;61.00;;;;;;5012619;28;20456;-80
2022/08/11 01:22:30;;;;;;;3.60;2.60;;;20.40;61.10;;;;;;5012449;28;20413;-79
2022/08/11 01:25:41;;;;;;;4.23;1.90;;;20.40;61.40;;;;;;5012403;28;20439;-79
2022/08/11 01:28:46;;;;;;;3.33;2.40;;;20.40;61.60;;;;;;4998669;28;20459;-79
2022/08/11 01:31:33;;;;;;;4.60;2.30;;;20.40;61.80;;;;;;5010300;28;20857;-79
2022/08/11 01:34:30;;;;;;;3.43;2.50;;;20.40;62.10;;;;;;5011906;28;20438;-79
2022/08/11 01:37:17;;;;;;;8.33;2.60;;;20.40;62.40;;;;;;5010989;28;20423;-78
2022/08/11 01:40:07;;;;;;;2.53;2.20;;;20.30;62.70;;;;;;4992919;28;20587;-78
2022/08/11 01:45:47;;;;;;;2.20;2.00;;;20.20;63.00;;;;;;5014120;28;20457;-80
2022/08/11 01:48:13;;;;;;;2.13;1.87;;;20.20;63.40;;;;;;5015308;28;20454;-79
2022/08/11 01:51:05;;;;;;;4.70;1.83;;;20.20;63.20;;;;;;4998842;28;20937;-80
2022/08/11 01:54:01;;;;;;;4.47;2.90;;;20.10;63.90;;;;;;5000840;28;20427;-79
2022/08/11 01:56:47;;;;;;;6.00;2.80;;;20.00;64.20;;;;;;5017314;28;20408;-79
2022/08/11 01:59:18;;;;;;;2.50;2.20;;;19.80;64.50;;;;;;4998461;28;20459;-80
2022/08/11 02:01:59;;;;;;;7.90;2.20;;;19.80;65.10;;;;;;5003224;28;20424;-80
2022/08/11 02:04:46;;;;;;;4.30;2.37;;;19.80;64.90;;;;;;5005408;28;20434;-80
2022/08/11 02:07:44;;;;;;;6.20;2.30;;;19.90;65.20;;;;;;5003974;28;21076;-80
2022/08/11 02:13:52;;;;;;;2.30;2.10;;;19.90;65.40;;;;;;5019195;28;20396;-80
2022/08/11 02:16:38;;;;;;;4.03;2.33;;;20.00;65.30;;;;;;5013172;28;20419;-77
2022/08/11 02:26:04;;;;;;;4.27;2.50;;;20.10;64.70;;;;;;5024261;28;20775;-81
2022/08/11 02:29:09;;;;;;;3.20;2.20;;;20.10;64.80;;;;;;5025331;28;20416;-82
2022/08/11 02:35:08;;;;;;;3.27;2.30;;;20.00;65.40;;;;;;4952553;29;20432;-81
2022/08/11 02:37:54;;;;;;;9.17;2.60;;;19.80;65.60;;;;;;4996859;28;20443;-80
2022/08/11 02:40:42;;;;;;;3.40;2.30;;;19.70;65.70;;;;;;4998119;28;21016;-82
2022/08/11 02:43:28;;;;;;;2.73;2.27;;;19.80;66.00;;;;;;5012394;28;20514;-79
2022/08/11 02:46:20;;;;;;;2.60;1.77;;;19.80;65.90;;;;;;5012980;28;20418;-79
2022/08/11 02:52:14;;;;;;;6.03;2.50;;;19.80;66.40;;;;;;5015816;28;20985;-79
2022/08/11 02:55:15;;;;;;;3.87;2.27;;;19.70;66.80;;;;;;5003311;28;20435;-78
2022/08/11 02:57:48;;;;;;;2.43;2.23;;;19.80;66.40;;;;;;5000327;28;20442;-78
2022/08/11 03:00:16;;;;;;;3.30;2.23;;;19.70;66.70;;;;;;4993842;28;20486;-78
2022/08/11 03:03:01;;;;;;;2.60;2.20;;;19.70;66.90;;;;;;5010834;28;20438;-78
2022/08/11 03:05:57;;;;;;;4.20;2.40;;;19.70;67.40;;;;;;5010812;28;20436;-77
2022/08/11 03:08:50;;;;;;;3.47;2.47;;;19.70;67.00;;;;;;4992853;28;21061;-76
2022/08/11 03:17:40;;;;;;;2.80;2.33;;;19.70;66.90;;;;;;4997490;28;20794;-77
2022/08/11 03:20:21;;;;;;;3.93;2.30;;;19.80;67.00;;;;;;4992751;28;20483;-78
2022/08/11 03:23:02;;;;;;;6.13;2.20;;;19.80;67.30;;;;;;4992556;28;20424;-77
2022/08/11 03:25:54;;;;;;;4.67;2.30;;;19.80;67.50;;;;;;4992669;28;20518;-77
2022/08/11 03:29:07;;;;;;;4.70;2.47;;;19.70;67.60;;;;;;5010321;28;20789;-75
2022/08/11 03:31:44;;;;;;;2.13;1.90;;;19.60;67.80;;;;;;4933167;29;20438;-76
2022/08/11 03:34:17;;;;;;;2.83;2.50;;;19.60;68.40;;;;;;5007236;28;20439;-78
2022/08/11 03:36:49;;;;;;;3.07;2.73;;;19.60;69.10;;;;;;5010802;28;20482;-79
2022/08/11 03:39:45;;;;;;;2.70;2.20;;;19.50;69.00;;;;;;4992889;28;20467;-78
2022/08/11 03:42:56;;;;;;;5.90;2.30;;;19.50;69.10;;;;;;5010106;28;20392;-76
2022/08/11 03:45:32;;;;;;;3.10;2.13;;;19.50;69.30;;;;;;5006135;28;20436;-73
2022/08/11 03:48:38;;;;;;;5.70;2.30;;;19.50;69.50;;;;;;5008669;28;20506;-73
2022/08/11 03:51:07;;;;;;;4.70;2.70;;;19.50;69.60;;;;;;5008588;28;20547;-73
2022/08/11 03:53:55;;;;;;;4.03;3.10;;;19.50;69.80;;;;;;5008439;28;20419;-73
2022/08/11 03:56:35;;;;;;;4.30;2.47;;;19.40;69.60;;;;;;5008541;28;20515;-73
2022/08/11 03:59:10;;;;;;;5.53;2.53;;;19.50;70.60;;;;;;5008254;28;20506;-73
2022/08/11 04:02:13;;;;;;;4.47;2.30;;;19.50;70.60;;;;;;4990410;28;20425;-73
2022/08/11 04:04:58;;;;;;;5.07;2.60;;;19.40;71.00;;;;;;4990288;28;21017;-73
2022/08/11 04:07:51;;;;;;;3.80;2.80;;;19.40;70.90;;;;;;5008205;28;21119;-74
2022/08/11 04:10:50;;;;;;;5.97;2.50;;;19.40;71.20;;;;;;5008098;28;20964;-73
2022/08/11 04:13:26;;;;;;;2.37;2.17;;;19.40;71.50;;;;;;4989774;28;20430;-74
2022/08/11 04:16:08;;;;;;;6.60;2.70;;;19.40;71.90;;;;;;5008970;28;20408;-74
2022/08/11 04:19:15;;;;;;;3.47;2.47;;;19.40;72.10;;;;;;5009590;28;20501;-73
2022/08/11 04:22:22;;;;;;;6.10;2.70;;;19.40;72.30;;;;;;5008325;28;20454;-73
2022/08/11 04:25:24;;;;;;;4.83;2.70;;;19.40;72.20;;;;;;5008323;28;20427;-73
2022/08/11 04:28:20;;;;;;;6.30;2.90;;;19.40;72.90;;;;;;5008149;28;20842;-74
2022/08/11 04:30:49;;;;;;;6.67;2.80;;;19.40;73.50;;;;;;5008172;28;21016;-73
2022/08/11 04:33:42;;;;;;;4.43;2.50;;;19.30;73.50;;;;;;5008011;28;20415;-73
2022/08/11 04:37:31;;;;;;;4.40;2.70;;;19.20;73.90;;;;;;4990241;28;20416;-73
2022/08/11 04:39:53;;;;;;;8.67;2.70;;;19.30;73.90;;;;;;5007667;28;20561;-73
2022/08/11 04:45:35;;;;;;;6.13;2.97;;;19.30;74.60;;;;;;5008274;28;20442;-73
2022/08/11 05:01:42;;;;;;;7.33;2.67;;;19.10;76.60;;;;;;5008204;28;20527;-75
2022/08/11 05:08:05;;;;;;;5.53;3.50;;;19.20;76.60;;;;;;5008231;28;21325;-75
2022/08/11 05:10:50;;;;;;;7.93;2.63;;;19.20;76.80;;;;;;5007642;28;20638;-74
2022/08/11 05:37:04;;;;;;;4.73;2.83;;;19.90;77.00;;;;;;5012192;28;20423;-74
2022/08/11 05:56:49;;;;;;;9.53;3.80;;;20.80;74.40;;;;;;5011333;28;20470;-74
2022/08/11 05:59:18;;;;;;;10.70;3.50;;;20.70;72.90;;;;;;4992748;28;20480;-74
2022/08/11 06:01:46;;;;;;;4.50;2.77;;;20.90;73.70;;;;;;5011057;28;20453;-74
2022/08/11 06:04:18;;;;;;;6.20;3.50;;;20.90;72.80;;;;;;5011747;28;20428;-74
2022/08/11 06:06:58;;;;;;;4.70;2.83;;;21.10;74.20;;;;;;5012601;28;20858;-74
2022/08/11 06:09:43;;;;;;;7.30;3.30;;;21.20;73.70;;;;;;5011115;28;20435;-74
2022/08/11 06:12:18;;;;;;;6.43;3.20;;;21.30;73.10;;;;;;4977951;28;20819;-74
2022/08/11 06:14:45;;;;;;;9.03;3.27;;;21.50;73.50;;;;;;5010913;28;20427;-76
2022/08/11 06:17:12;;;;;;;16.30;2.87;;;21.60;72.70;;;;;;4992666;28;20428;-76
2022/08/11 06:19:41;;;;;;;6.40;3.13;;;21.40;71.20;;;;;;4992846;28;20541;-76
2022/08/11 06:22:10;;;;;;;4.93;2.50;;;21.40;72.60;;;;;;5011051;28;21080;-76
2022/08/11 06:24:41;;;;;;;13.20;3.67;;;21.60;74.30;;;;;;4993328;28;20433;-76
2022/08/11 06:27:07;;;;;;;11.33;3.20;;;21.70;72.40;;;;;;4993315;28;20427;-77
2022/08/11 06:29:39;;;;;;;13.53;3.10;;;21.80;71.90;;;;;;4992696;28;20452;-77
2022/08/11 06:32:05;;;;;;;12.03;2.73;;;22.00;71.20;;;;;;4993626;28;20524;-76
2022/08/11 06:34:51;;;;;;;12.30;2.93;;;22.10;71.40;;;;;;5011147;28;20922;-76
2022/08/11 06:37:26;;;;;;;5.17;3.03;;;22.40;72.50;;;;;;5010753;28;20419;-77
2022/08/11 06:40:15;;;;;;;7.40;2.80;;;22.70;69.90;;;;;;5011278;28;20471;-77
2022/08/11 06:42:50;;;;;;;5.00;2.97;;;23.00;68.80;;;;;;5010908;28;20464;-77
2022/08/11 06:45:27;;;;;;;5.63;2.67;;;22.80;66.60;;;;;;5011591;28;20783;-77
2022/08/11 06:47:54;;;;;;;4.73;2.50;;;22.90;66.90;;;;;;5010877;28;20415;-77
2022/08/11 06:53:09;;;;;;;6.33;2.70;;;22.90;67.60;;;;;;5011322;28;20419;-76
2022/08/11 07:01:13;;;;;;;3.67;2.50;;;23.10;67.50;;;;;;5010747;28;20557;-76
2022/08/11 07:03:49;;;;;;;8.40;2.77;;;22.90;66.60;;;;;;5010177;28;20435;-76
2022/08/11 07:06:21;;;;;;;10.33;2.60;;;23.00;66.70;;;;;;5010548;28;20440;-77
2022/08/11 07:29:10;;;;;;;4.00;2.60;;;22.60;72.70;;;;;;5009934;28;20509;-77
2022/08/11 07:31:45;;;;;;;4.50;3.43;;;22.60;71.90;;;;;;5009927;28;20426;-77
2022/08/11 07:34:34;;;;;;;6.07;3.27;;;22.60;72.70;;;;;;5009591;28;20464;-77
2022/08/11 07:37:16;;;;;;;4.30;2.07;;;22.70;73.00;;;;;;5009420;28;20421;-77
2022/08/11 07:39:43;;;;;;;3.57;3.10;;;22.70;73.40;;;;;;5009233;28;20474;-77
2022/08/11 07:42:13;;;;;;;2.90;2.57;;;22.60;72.70;;;;;;4991288;28;20521;-77
2022/08/11 07:52:58;;;;;;;2.80;2.60;;;22.90;69.20;;;;;;5012475;28;20467;-76
2022/08/11 07:55:25;;;;;;;2.30;2.10;;;23.00;66.80;;;;;;5015078;28;20839;-76
2022/08/11 08:20:15;;;;;;;4.53;2.60;;;23.90;60.20;;;;;;5007975;28;20507;-76
2022/08/11 08:22:41;;;;;;;3.70;2.40;;;24.00;59.50;;;;;;5007890;28;20415;-76
2022/08/11 08:25:07;;;;;;;3.83;2.30;;;24.10;60.20;;;;;;5008330;28;20526;-75
2022/08/11 08:27:35;;;;;;;9.53;2.53;;;24.20;59.00;;;;;;4989971;28;20420;-75
2022/08/11 08:32:48;;;;;;;2.77;2.33;;;24.30;58.80;;;;;;5007842;28;20786;-75
2022/08/11 08:35:15;;;;;;;2.63;2.30;;;24.40;59.80;;;;;;4991057;28;21291;-75
2022/08/11 08:37:41;;;;;;;5.60;1.90;;;24.50;59.10;;;;;;4990485;28;20438;-75
2022/08/11 08:40:08;;;;;;;2.40;2.30;;;24.70;59.40;;;;;;4973435;28;20495;-76
2022/08/11 08:42:42;;;;;;;4.90;2.33;;;24.80;57.90;;;;;;4989757;28;20427;-75
2022/08/11 08:45:14;;;;;;;4.93;2.40;;;24.90;58.10;;;;;;4989725;28;20423;-76
2022/08/11 08:48:01;;;;;;;7.47;2.53;;;25.00;57.90;;;;;;5007699;28;20918;-76
2022/08/11 08:53:22;;;;;;;2.90;2.23;;;25.10;56.70;;;;;;4992554;28;20422;-76
2022/08/11 08:55:50;;;;;;;2.70;2.50;;;25.20;56.00;;;;;;5007430;28;20781;-75
2022/08/11 08:58:19;;;;;;;5.70;2.07;;;25.30;56.10;;;;;;5007142;28;20446;-75
2022/08/11 09:00:49;;;;;;;3.73;2.37;;;25.40;55.90;;;;;;4989213;28;20581;-75
2022/08/11 09:03:15;;;;;;;2.17;1.97;;;25.40;55.30;;;;;;4989421;28;20416;-75
2022/08/11 09:05:42;;;;;;;3.47;2.47;;;25.50;55.90;;;;;;4989284;28;20550;-75
2022/08/11 09:08:08;;;;;;;7.60;2.53;;;25.70;55.30;;;;;;4989437;28;20434;-75
2022/08/11 09:10:34;;;;;;;2.10;1.90;;;26.00;53.80;;;;;;5007113;28;20450;-75
2022/08/11 09:13:03;;;;;;;3.30;2.10;;;26.20;53.40;;;;;;5007222;28;20423;-75
2022/08/11 09:15:29;;;;;;;2.47;2.27;;;26.50;52.60;;;;;;5007265;28;20475;-75
2022/08/11 09:18:04;;;;;;;3.50;2.20;;;26.50;52.20;;;;;;5007554;28;20424;-75
2022/08/11 09:20:37;;;;;;;5.23;1.63;;;26.70;51.30;;;;;;5007186;28;20240;-75
2022/08/11 09:28:45;;;;;;;3.80;2.30;;;27.40;50.00;;;;;;5007313;28;20502;-75
2022/08/11 09:31:12;;;;;;;2.60;2.40;;;27.70;49.70;;;;;;5007013;28;20992;-74
2022/08/11 09:33:40;;;;;;;2.50;2.30;;;27.70;49.90;;;;;;5007147;28;20925;-75
2022/08/11 09:41:41;;;;;;;3.27;1.60;;;28.00;47.10;;;;;;5007736;28;20947;-75
2022/08/11 09:46:56;;;;;;;4.03;2.00;;;29.00;46.40;;;;;;5008075;28;20415;-75
2022/08/11 09:49:22;;;;;;;7.27;2.17;;;29.20;45.60;;;;;;5007870;28;21010;-76
2022/08/11 09:51:49;;;;;;;2.60;1.97;;;29.40;44.80;;;;;;5007416;28;20530;-75
2022/08/11 09:54:16;;;;;;;1.50;1.40;;;29.00;43.60;;;;;;4989532;28;20531;-75
2022/08/11 09:59:27;;;;;;;2.27;2.07;;;29.70;43.30;;;;;;5007398;28;20479;-76
2022/08/11 10:02:11;;;;;;;2.60;1.70;;;29.80;42.30;;;;;;5006751;28;20420;-76
2022/08/11 10:04:47;;;;;;;2.10;1.90;;;29.90;42.00;;;;;;5007161;28;20876;-76
2022/08/11 10:07:15;;;;;;;8.03;2.67;;;30.30;42.20;;;;;;5006743;28;20436;-76
2022/08/11 10:09:55;;;;;;;2.13;1.80;;;30.50;41.80;;;;;;5006715;28;20450;-76
2022/08/11 10:12:23;;;;;;;3.03;1.83;;;30.50;41.30;;;;;;4992030;28;20430;-76
2022/08/11 10:18:41;;;;;;;3.03;1.80;;;30.60;39.70;;;;;;5010584;28;20948;-78
2022/08/11 10:20:34;;;;;;;1.60;1.50;;;30.70;39.60;;;;;;5010922;28;20968;-79
2022/08/11 10:28:52;;;;;;;2.07;1.60;;;31.20;38.60;;;;;;4949129;29;20979;-77
2022/08/11 10:34:08;;;;;;;3.33;1.50;;;31.30;38.40;;;;;;5010152;28;20428;-78
2022/08/11 10:36:41;;;;;;;3.33;1.53;;;31.00;37.10;;;;;;5010079;28;20420;-78
2022/08/11 10:39:10;;;;;;;3.53;1.80;;;31.00;37.20;;;;;;5009695;28;20434;-77
2022/08/11 10:44:21;;;;;;;1.60;1.50;;;31.40;36.90;;;;;;4995267;28;20509;-78
2022/08/11 10:49:33;;;;;;;1.73;1.50;;;31.50;36.00;;;;;;5010325;28;21026;-78
2022/08/11 11:00:15;;;;;;;3.97;1.70;;;31.70;34.90;;;;;;4996441;28;20474;-79
2022/08/11 11:02:43;;;;;;;2.20;1.70;;;31.90;34.90;;;;;;4976309;28;20934;-77
2022/08/11 11:05:27;;;;;;;3.17;1.80;;;31.60;36.10;;;;;;5010129;28;20511;-78
2022/08/11 11:11:01;;;;;;;2.97;1.63;;;31.90;36.40;;;;;;5010463;28;20892;-78
2022/08/11 11:19:02;;;;;;;3.53;1.50;;;31.70;34.40;;;;;;5010123;28;20935;-76
2022/08/11 11:21:29;;;;;;;2.33;1.40;;;31.50;35.50;;;;;;4992625;28;20481;-76
2022/08/11 11:24:32;;;;;;;5.07;1.73;;;31.40;36.00;;;;;;4975725;28;20420;-76
2022/08/11 11:27:19;;;;;;;3.33;1.37;;;31.00;35.90;;;;;;5009933;28;21007;-77
2022/08/11 11:30:06;;;;;;;6.47;1.63;;;31.00;35.70;;;;;;5009730;28;20463;-76
2022/08/11 11:32:40;;;;;;;5.03;1.23;;;30.90;36.10;;;;;;4975626;28;20428;-76
2022/08/11 11:35:15;;;;;;;3.80;1.50;;;30.80;34.00;;;;;;5009673;28;20423;-76
2022/08/11 11:37:43;;;;;;;1.87;1.50;;;30.60;33.70;;;;;;5009838;28;20992;-76
2022/08/11 11:40:14;;;;;;;6.10;1.80;;;30.60;34.80;;;;;;4993800;28;20607;-77
2022/08/11 11:42:44;;;;;;;3.57;1.43;;;30.60;35.80;;;;;;4976296;28;20436;-77
2022/08/11 11:45:14;;;;;;;2.57;1.50;;;30.40;35.70;;;;;;5009714;28;20416;-76
2022/08/11 11:47:40;;;;;;;2.07;1.90;;;30.50;36.10;;;;;;4992163;28;20424;-76
2022/08/11 11:50:07;;;;;;;3.40;1.67;;;30.60;36.00;;;;;;4991457;28;21047;-76
2022/08/11 11:52:34;;;;;;;5.50;1.60;;;30.60;35.60;;;;;;4991535;28;20812;-76
2022/08/11 11:55:01;;;;;;;1.70;1.60;;;30.50;35.50;;;;;;5011117;28;20428;-77
2022/08/11 12:03:00;;;;;;;2.33;2.00;;;29.80;36.80;;;;;;5010051;28;20763;-77
2022/08/11 12:05:26;;;;;;;1.50;1.40;;;29.90;36.70;;;;;;4991847;28;21057;-77
2022/08/11 12:13:43;;;;;;;5.53;1.60;;;29.30;35.80;;;;;;5009438;28;20419;-77
2022/08/11 12:16:12;;;;;;;6.60;1.80;;;29.30;36.70;;;;;;5009698;28;20451;-77
2022/08/11 12:18:40;;;;;;;1.87;1.63;;;29.70;37.70;;;;;;4975412;28;20522;-76
2022/08/11 12:21:07;;;;;;;1.60;1.40;;;29.90;37.50;;;;;;4991579;28;20476;-77
2022/08/11 12:29:10;;;;;;;1.80;1.30;;;30.00;35.00;;;;;;4995910;28;20431;-77
2022/08/11 12:31:38;;;;;;;2.53;1.80;;;30.00;35.00;;;;;;4992876;28;21049;-76
2022/08/11 12:34:08;;;;;;;5.07;1.50;;;29.90;35.20;;;;;;5009574;28;20415;-77
2022/08/11 12:36:58;;;;;;;1.47;1.30;;;30.00;35.50;;;;;;4992983;28;20499;-76
2022/08/11 12:54:05;;;;;;;2.77;1.37;;;30.10;35.90;;;;;;5009598;28;20424;-77
2022/08/11 13:05:11;;;;;;;2.80;1.73;;;29.60;35.10;;;;;;5011887;28;20430;-76
2022/08/11 13:07:39;;;;;;;4.00;2.00;;;29.80;35.00;;;;;;5011710;28;20419;-76
2022/08/11 13:10:12;;;;;;;4.17;1.50;;;29.80;35.20;;;;;;4991825;28;20446;-77
2022/08/11 13:12:48;;;;;;;2.33;1.73;;;29.80;36.00;;;;;;4992512;28;20515;-77
2022/08/11 13:15:22;;;;;;;4.80;1.20;;;29.90;35.50;;;;;;4993050;28;20416;-75
2022/08/11 13:17:49;;;;;;;5.67;1.80;;;29.60;34.50;;;;;;5009284;28;20418;-76
2022/08/11 13:20:21;;;;;;;6.30;1.83;;;29.40;34.50;;;;;;5009449;28;20475;-75
2022/08/11 13:22:52;;;;;;;1.87;1.33;;;29.30;35.00;;;;;;5009555;28;20486;-76
2022/08/11 13:25:20;;;;;;;2.73;1.93;;;29.50;36.10;;;;;;5010055;28;20420;-76
2022/08/11 13:27:48;;;;;;;1.60;1.50;;;29.60;35.90;;;;;;5009883;28;20779;-76
2022/08/11 13:33:00;;;;;;;3.10;1.80;;;30.00;36.60;;;;;;4995296;28;20427;-77
2022/08/11 13:35:30;;;;;;;2.67;1.40;;;30.00;35.70;;;;;;4992295;28;20857;-76
2022/08/11 13:37:57;;;;;;;2.93;1.43;;;30.10;35.40;;;;;;5009661;28;20468;-76
2022/08/11 13:40:24;;;;;;;1.83;1.73;;;30.00;34.10;;;;;;4991817;28;20476;-76
2022/08/11 13:42:51;;;;;;;1.80;1.70;;;29.90;34.10;;;;;;4991924;28;20933;-76
2022/08/11 13:45:18;;;;;;;1.73;1.60;;;29.90;34.70;;;;;;5010618;28;20483;-76
2022/08/11 13:47:45;;;;;;;4.40;1.40;;;29.90;35.80;;;;;;5012626;28;20440;-76
2022/08/11 13:50:13;;;;;;;2.40;2.20;;;30.00;37.20;;;;;;4994529;28;20460;-76
2022/08/11 13:52:40;;;;;;;9.30;2.13;;;30.00;36.90;;;;;;4978156;28;20511;-75
2022/08/11 13:55:09;;;;;;;2.67;2.00;;;30.00;37.20;;;;;;4993785;28;20423;-76
2022/08/11 13:57:36;;;;;;;3.43;1.50;;;30.10;36.80;;;;;;4977325;28;20451;-76
2022/08/11 14:00:08;;;;;;;3.17;1.50;;;30.10;36.90;;;;;;4993641;28;20486;-76
2022/08/11 14:02:38;;;;;;;2.50;2.00;;;29.90;35.90;;;;;;5011483;28;20455;-75
2022/08/11 14:05:06;;;;;;;3.43;1.60;;;29.90;36.10;;;;;;4993663;28;20419;-75
2022/08/11 14:07:38;;;;;;;1.70;1.60;;;30.10;35.80;;;;;;4993265;28;20443;-76
2022/08/11 14:10:06;;;;;;;1.80;1.70;;;29.90;34.90;;;;;;4992948;28;20455;-76
2022/08/11 14:15:24;;;;;;;9.50;1.83;;;29.90;35.70;;;;;;4996944;28;20427;-76
2022/08/11 14:18:00;;;;;;;1.77;1.67;;;29.90;35.70;;;;;;5010692;28;20432;-75
2022/08/11 14:22:05;;;;;;;3.40;1.60;;;29.80;36.40;;;;;;5010439;28;20478;-75
2022/08/11 14:23:15;;;;;;;5.33;1.50;;;29.70;36.90;;;;;;5010332;28;20436;-76
2022/08/11 14:26:22;;;;;;;6.63;1.67;;;29.80;36.60;;;;;;5010678;28;20423;-75
2022/08/11 14:28:28;;;;;;;1.70;1.60;;;29.70;37.50;;;;;;5010576;28;20911;-75
2022/08/11 14:30:54;;;;;;;3.23;1.20;;;29.80;37.30;;;;;;5010478;28;20444;-76
2022/08/11 14:33:20;;;;;;;1.47;1.37;;;29.80;36.60;;;;;;4976914;28;20450;-76
2022/08/11 14:35:46;;;;;;;2.13;1.20;;;29.80;36.60;;;;;;5010290;28;20236;-75
2022/08/11 14:38:12;;;;;;;1.90;1.80;;;29.70;35.90;;;;;;5010587;28;20428;-75
2022/08/11 14:48:53;;;;;;;7.63;1.70;;;29.20;35.70;;;;;;4995832;28;20423;-75
2022/08/11 14:51:21;;;;;;;9.80;1.90;;;29.20;35.60;;;;;;5010401;28;20448;-75
2022/08/11 14:53:47;;;;;;;3.83;1.90;;;29.10;35.10;;;;;;5010987;28;20440;-75
2022/08/11 14:58:59;;;;;;;6.80;2.23;;;29.10;35.00;;;;;;4995524;28;20430;-75
2022/08/11 15:04:10;;;;;;;2.20;1.13;;;29.00;34.40;;;;;;5010395;28;20431;-75
2022/08/11 15:06:36;;;;;;;2.63;1.43;;;29.10;34.70;;;;;;5010062;28;20452;-75
2022/08/11 15:09:05;;;;;;;1.97;1.60;;;29.00;34.50;;;;;;5010007;28;20543;-75
2022/08/11 15:17:06;;;;;;;2.83;1.50;;;29.00;34.40;;;;;;5010575;28;20576;-75
2022/08/11 15:17:08;;;;;;;3.37;1.53;;;29.10;34.80;;;;;;4995840;28;20418;-75
2022/08/11 15:24:17;;;;;;;6.17;1.50;;;29.20;35.20;;;;;;4993662;28;20938;-75
2022/08/11 15:25:09;;;;;;;3.07;1.53;;;29.00;34.40;;;;;;4964949;28;20471;-76
2022/08/11 15:38:45;;;;;;;6.03;1.60;;;28.80;34.10;;;;;;5009074;28;20427;-75
2022/08/11 15:46:54;;;;;;;1.33;1.23;;;28.70;35.20;;;;;;5008731;28;21167;-76
2022/08/11 15:49:30;;;;;;;1.67;1.50;;;28.70;34.60;;;;;;5008635;28;21366;-77
2022/08/11 15:52:05;;;;;;;4.03;1.47;;;28.70;34.10;;;;;;4990914;28;20424;-77
2022/08/11 15:54:32;;;;;;;2.50;1.47;;;28.70;34.40;;;;;;4990861;28;20433;-76
2022/08/11 15:57:00;;;;;;;4.03;1.60;;;28.60;33.40;;;;;;4990603;28;20420;-76
2022/08/11 16:04:54;;;;;;;1.60;1.50;;;28.40;33.60;;;;;;5008324;28;20427;-77
2022/08/11 16:07:26;;;;;;;1.80;1.67;;;28.40;34.20;;;;;;5007983;28;20454;-77
2022/08/11 16:09:56;;;;;;;2.67;1.50;;;28.40;34.40;;;;;;4990110;28;20452;-76
2022/08/11 16:12:27;;;;;;;2.50;1.50;;;28.40;34.20;;;;;;4990356;28;20419;-76
2022/08/11 16:17:50;;;;;;;3.07;1.57;;;28.40;34.40;;;;;;4993350;28;20427;-76
2022/08/11 16:20:20;;;;;;;5.77;1.63;;;28.30;34.50;;;;;;4974708;28;21206;-76
2022/08/11 16:22:49;;;;;;;5.37;1.83;;;28.30;34.60;;;;;;4990042;28;20949;-76
2022/08/11 16:25:21;;;;;;;3.53;1.60;;;28.10;34.40;;;;;;5007732;28;20478;-76
2022/08/11 16:27:56;;;;;;;2.40;1.40;;;28.10;34.60;;;;;;4990712;28;20424;-76
2022/08/11 16:30:22;;;;;;;2.50;1.20;;;28.00;34.80;;;;;;4990257;28;20920;-76
2022/08/11 16:32:52;;;;;;;1.33;1.23;;;28.00;34.40;;;;;;4990158;28;20513;-76
2022/08/11 16:40:55;;;;;;;4.70;1.40;;;28.00;35.50;;;;;;5007916;28;20985;-77
2022/08/11 16:48:57;;;;;;;4.40;1.60;;;27.80;34.30;;;;;;5009304;28;20929;-76
2022/08/11 16:51:23;;;;;;;1.60;1.50;;;27.60;33.50;;;;;;5008872;28;20440;-76
2022/08/11 16:53:49;;;;;;;1.67;1.57;;;27.50;33.40;;;;;;4991087;28;20432;-76
2022/08/11 16:56:19;;;;;;;1.63;1.53;;;27.50;33.80;;;;;;5008988;28;20424;-76
2022/08/11 17:01:38;;;;;;;1.43;1.30;;;27.40;34.00;;;;;;5010162;28;20915;-76
2022/08/11 17:18:06;;;;;;;2.67;1.70;;;27.20;33.30;;;;;;4994857;28;20423;-76
2022/08/11 17:20:33;;;;;;;6.23;1.70;;;27.10;33.60;;;;;;4993477;28;20498;-76
2022/08/11 17:25:47;;;;;;;2.90;1.50;;;27.10;34.20;;;;;;5014186;28;20427;-76
2022/08/11 17:28:16;;;;;;;5.13;1.50;;;27.00;33.10;;;;;;5013529;28;20469;-76
2022/08/11 17:36:16;;;;;;;5.43;1.50;;;26.80;34.50;;;;;;4998634;28;20980;-76
2022/08/11 17:38:43;;;;;;;2.00;1.80;;;26.80;33.90;;;;;;4995473;28;20439;-76
2022/08/11 17:49:25;;;;;;;3.10;1.70;;;26.70;34.80;;;;;;5012633;28;20586;-77
2022/08/11 18:00:11;;;;;;;2.80;1.60;;;26.50;35.70;;;;;;4997571;28;20475;-76
2022/08/11 18:05:30;;;;;;;2.70;1.60;;;26.40;35.50;;;;;;5012750;28;20438;-76
